Sulkendrup Airport

DK-0029 · 南丹麦大区, 丹麦

使用的METAR站距离机场69 km。
罗盘
风向 的 风向 100° Sulkendrup Airport 8/26
风: 11 kt, 4 beaufort

11 kt

2 kt
改变
0 ft 2.000 4.000 6.000 8.000 10.000
Cloud Cloud Cloud Cloud
SCT 600
Cloud Cloud Cloud Cloud Cloud Cloud
BKN 6.200
METAR EKSB 032220Z AUTO 10011KT 5000 SCT006/// BKN062/// 06/05 Q1009

METAR Sulkendrup Airport - DK-0029

Sulkendrup Airport是,丹麦中的小机场。 该机场位于纬度55,28368和经度10,71398。 该机场有一条跑道: 8/26. 这个机场没有ICAO代码,我们使用DK-0029作为参考。 机场在Kobenhavn FIR中。

该航空气象观测是针对Sønderborg Airport在2024年3月3日 23:20, 当地时间进行的。

机场观察

风向为100°,速度为11 kt。

可见度为5 km。

有疏云,零星散落的云朵在600 ft的高度 和 碎云在6.200 ft的高度。 破损或更高的上限为6.200 ft。

温度为6 °C,阵风为1 °C。 露点为5 °C,相对湿度为93%。 海平面上的气压为1009 hPa (QNH)。

白天

今天,太阳从07:00升起,在17:56降落。 这适用于Sulkendrup Airport,世界夏令时可能有所不同。 当地时间与世界标准时间之间的时差为+1 小时。 当前,没有夏令时有效。

公司介绍

我们没有关于这个机场的公司信息。

体会

到Vliegles.nl去找飞行课程,跳伞和其他飞行体验。 浏览页面,了解Sulkendrup Airport附近所有可用的活动。 你也可以使用搜索功能来寻找你所在地附近的特定飞行课程、跳伞或其他飞行体验。

跑道

Id 标题 侧风 逆风 侧风 %
8/26 088°-268° 2 kt 11 kt 21 %

逆风成分最大的方向会被突出显示,并用于横风计算。 这并不一定意味着这个方向在使用。

乌云

600 ft SCT 疏云,零星散落的云朵
6.200 ft BKN 碎云

温度 & 天气

温度 6 °C
露点 5 °C
相对湿度 93%
风寒 1 °C
Kp-index 4 (0-9)

白天

日出
07:04 (7:23)
中午
12:32
日落
18:01

小工具

你想在你的网站上有一个关于Sulkendrup Airport的当前航空天气(METAR)的小部件吗?

显示HTML代码
?>